Plessis, New York
Current Conditions -  °F | °C
As of 8:58 AM on Wednesday 28 Jan 2015 (Local Time) from KGTB Reporting Station
Clear Clear  
Wind Chill:   Ceiling: Unl
Heat Index:   Visibility: 10mi
Dew Point: -8°   Wind: 3mph
Humidity: 57%   Direction: 310°NW
Pressure: 30.18"   Gusts: NA
Location:  44.27°N, 75.85°W
Report Text: KGTB 281358Z AUTO 31003KT 10SM CLR M15/M22 A3018 RMK AO2 SLP238 T11551222
Loading
Personal Weather Stations






























Interactive Weather Map New forecast layout! Learn more

10-Day Weather Forecast

Advertisements
Track Severe Weather on mobile